createdAt,value
2022-12-19T00:02:27.288Z,99201.50
2022-12-19T00:04:59.658Z,99192.13
2022-12-19T00:07:32.326Z,99185.75
2022-12-19T00:10:04.880Z,99156.69
2022-12-19T00:12:37.139Z,99160.91
2022-12-19T00:15:09.591Z,99159.53
2022-12-19T00:17:42.301Z,99163.50
2022-12-19T00:20:15.332Z,99157.72
2022-12-19T00:22:50.992Z,99158.19
2022-12-19T00:25:23.027Z,99155.13
2022-12-19T00:27:56.333Z,99156.38
2022-12-19T00:30:28.451Z,99155.34
2022-12-19T00:33:03.282Z,99158.38
2022-12-19T00:35:35.569Z,99158.19
2022-12-19T00:38:07.578Z,99157.38
2022-12-19T00:40:40.508Z,99160.31
2022-12-19T00:43:12.771Z,99158.47
2022-12-19T00:45:47.578Z,99147.31
2022-12-19T00:48:19.892Z,99153.50
2022-12-19T00:51:03.204Z,99163.66
2022-12-19T00:53:36.744Z,99172.97
2022-12-19T00:56:13.743Z,99160.44
2022-12-19T00:58:47.288Z,99152.88
2022-12-19T01:01:29.398Z,99156.06
2022-12-19T01:04:27.623Z,99167.06
2022-12-19T01:06:58.018Z,99156.06
2022-12-19T01:09:37.417Z,99156.47
2022-12-19T01:12:30.459Z,99153.09
2022-12-19T01:15:04.394Z,99157.56
2022-12-19T01:17:44.403Z,99160.13
2022-12-19T01:20:26.688Z,99159.09
2022-12-19T01:23:02.880Z,99155.41
2022-12-19T01:25:37.113Z,99179.69
2022-12-19T01:28:15.779Z,99177.97
2022-12-19T01:30:48.364Z,99181.69
2022-12-19T01:33:21.917Z,99186.63
2022-12-19T01:35:54.459Z,99195.06
2022-12-19T01:38:26.374Z,99199.28
2022-12-19T01:40:59.052Z,99201.06
2022-12-19T01:44:07.981Z,99193.66
2022-12-19T01:46:48.720Z,99192.28
2022-12-19T01:49:31.860Z,99190.19
2022-12-19T01:52:08.471Z,99184.75
2022-12-19T01:54:43.370Z,99180.38
2022-12-19T01:57:18.717Z,99171.78
2022-12-19T01:59:55.383Z,99178.81
2022-12-19T02:02:44.361Z,99186.59
2022-12-19T02:05:16.383Z,99180.25
2022-12-19T02:07:50.696Z,99174.69
2022-12-19T02:10:22.954Z,99158.84
2022-12-19T02:12:55.886Z,99166.66
2022-12-19T02:15:35.496Z,99169.00
2022-12-19T02:18:21.036Z,99174.88
2022-12-19T02:21:13.660Z,99178.69
2022-12-19T02:24:18.859Z,99182.09
2022-12-19T02:27:02.329Z,99171.13
2022-12-19T02:30:35.704Z,99182.69
2022-12-19T02:33:41.549Z,99170.56
2022-12-19T02:36:27.194Z,99191.59
2022-12-19T02:39:10.880Z,99175.91
2022-12-19T02:41:51.485Z,99176.69
2022-12-19T02:44:36.530Z,99173.84
2022-12-19T02:47:11.598Z,99174.88
2022-12-19T02:49:44.133Z,99173.75
2022-12-19T02:52:20.761Z,99179.66
2022-12-19T02:55:01.146Z,99168.47
2022-12-19T02:58:08.605Z,99170.97
2022-12-19T03:00:55.704Z,99175.25
2022-12-19T03:03:47.337Z,99165.28
2022-12-19T03:06:29.586Z,99164.03
2022-12-19T03:09:20.409Z,99168.34
2022-12-19T03:12:03.145Z,99164.63
2022-12-19T03:14:37.293Z,99164.41
2022-12-19T03:17:09.446Z,99167.00
2022-12-19T03:19:42.666Z,99156.59
2022-12-19T03:22:14.755Z,99162.63
2022-12-19T03:24:47.846Z,99164.25
2022-12-19T03:27:27.500Z,99162.78
2022-12-19T03:30:11.985Z,99157.34
2022-12-19T03:32:46.819Z,99140.13
2022-12-19T03:35:23.485Z,99141.84
2022-12-19T03:37:58.687Z,99132.13
2022-12-19T03:40:33.701Z,99130.91
2022-12-19T03:43:11.677Z,99128.16
2022-12-19T03:46:10.505Z,99142.03
2022-12-19T03:48:54.154Z,99126.91
2022-12-19T03:51:40.190Z,99125.94
2022-12-19T03:54:27.892Z,99111.59
2022-12-19T03:57:26.141Z,99120.47
2022-12-19T04:00:09.260Z,99122.22
2022-12-19T04:02:52.349Z,99135.91
2022-12-19T04:05:27.698Z,99129.03
2022-12-19T04:08:05.480Z,99135.31
2022-12-19T04:10:47.658Z,99121.34
2022-12-19T04:13:28.142Z,99124.94
2022-12-19T04:16:13.402Z,99116.31
2022-12-19T04:18:53.248Z,99114.16
2022-12-19T04:21:32.862Z,99115.16
2022-12-19T04:24:19.026Z,99125.09
2022-12-19T04:26:54.687Z,99119.78
2022-12-19T04:29:28.675Z,99116.56
2022-12-19T04:32:04.443Z,99126.69
2022-12-19T04:34:40.201Z,99130.28
2022-12-19T04:37:15.081Z,99134.91
2022-12-19T04:39:48.317Z,99136.66
2022-12-19T04:42:20.221Z,99136.75
2022-12-19T04:44:52.930Z,99132.06
2022-12-19T04:47:25.664Z,99146.94
2022-12-19T04:49:57.585Z,99133.28
2022-12-19T04:52:30.349Z,99138.94
2022-12-19T04:55:02.713Z,99145.66
2022-12-19T04:57:35.285Z,99139.03
2022-12-19T05:00:10.415Z,99127.06
2022-12-19T05:02:42.835Z,99119.81
2022-12-19T05:05:14.900Z,99124.09
2022-12-19T05:07:47.699Z,99127.97
2022-12-19T05:10:19.816Z,99128.78
2022-12-19T05:12:54.816Z,99126.72
2022-12-19T05:15:26.678Z,99126.88
2022-12-19T05:17:59.006Z,99125.56
2022-12-19T05:20:30.907Z,99121.06
2022-12-19T05:23:06.658Z,99115.66
2022-12-19T05:25:42.138Z,99119.69
2022-12-19T05:28:18.132Z,99116.44
2022-12-19T05:30:52.523Z,99114.53
2022-12-19T05:33:25.432Z,99107.97
2022-12-19T05:35:58.086Z,99105.69
2022-12-19T05:38:31.302Z,99109.03
2022-12-19T05:41:20.420Z,99112.13
2022-12-19T05:43:55.830Z,99103.25
2022-12-19T05:46:27.857Z,99102.78
2022-12-19T05:49:00.599Z,99114.84
2022-12-19T05:51:32.594Z,99116.09
2022-12-19T05:54:05.800Z,99105.56
2022-12-19T05:56:37.707Z,99107.47
2022-12-19T05:59:11.677Z,99108.44
2022-12-19T06:01:43.718Z,99113.06
2022-12-19T06:07:09.769Z,99094.84
2022-12-19T06:09:42.023Z,99080.69
2022-12-19T06:12:13.893Z,99084.03
2022-12-19T06:14:46.646Z,99086.66
2022-12-19T06:17:18.957Z,99092.25
2022-12-19T06:19:51.657Z,99091.19
2022-12-19T06:22:24.050Z,99093.66
2022-12-19T06:24:56.766Z,99087.78
2022-12-19T06:27:28.710Z,99092.75
2022-12-19T06:30:23.553Z,99090.03
2022-12-19T06:32:56.308Z,99089.84
2022-12-19T06:35:28.870Z,99083.28
2022-12-19T06:38:01.632Z,99090.72
2022-12-19T06:40:52.871Z,99084.91
2022-12-19T06:43:26.222Z,99085.69
2022-12-19T06:45:59.000Z,99072.66
2022-12-19T06:48:31.351Z,99067.16
2022-12-19T06:53:57.399Z,99066.19
2022-12-19T06:56:36.461Z,99074.75
2022-12-19T06:59:13.278Z,99072.81
2022-12-19T07:01:55.136Z,99067.41
2022-12-19T07:04:38.714Z,99079.47
2022-12-19T07:07:11.957Z,99084.91
2022-12-19T07:09:44.504Z,99087.88
2022-12-19T07:12:16.408Z,99095.59
2022-12-19T07:14:53.602Z,99111.72
2022-12-19T07:17:26.950Z,99116.78
2022-12-19T07:19:59.944Z,99104.84
2022-12-19T07:22:34.348Z,99104.84
2022-12-19T07:25:08.035Z,99109.16
2022-12-19T07:27:40.035Z,99112.13
2022-12-19T07:30:13.376Z,99117.91
2022-12-19T07:32:45.262Z,99119.94
2022-12-19T07:35:18.238Z,99116.66
2022-12-19T07:37:51.468Z,99125.59
2022-12-19T07:40:23.584Z,99126.97
2022-12-19T07:42:59.720Z,99139.97
2022-12-19T07:45:33.141Z,99139.59
2022-12-19T07:48:07.213Z,99154.78
2022-12-19T07:50:39.117Z,99157.31
2022-12-19T07:53:12.202Z,99176.47
2022-12-19T07:55:45.151Z,99178.91
2022-12-19T07:58:19.776Z,99177.53
2022-12-19T08:00:57.757Z,99181.94
2022-12-19T08:03:29.760Z,99174.06
2022-12-19T08:06:06.366Z,99156.91
2022-12-19T08:08:38.801Z,99148.97
2022-12-19T08:11:26.769Z,99149.16
2022-12-19T08:13:58.699Z,99141.34
2022-12-19T08:16:37.384Z,99138.44
2022-12-19T08:19:25.989Z,99145.31
2022-12-19T08:22:00.393Z,99150.16
2022-12-19T08:24:32.803Z,99144.72
2022-12-19T08:27:06.564Z,99159.16
2022-12-19T08:29:39.132Z,99146.22
2022-12-19T08:32:17.127Z,99147.38
2022-12-19T08:34:52.757Z,99143.13
2022-12-19T08:37:25.752Z,99152.16
2022-12-19T08:39:58.043Z,99149.06
2022-12-19T08:42:31.288Z,99148.81
2022-12-19T08:45:03.777Z,99128.50
2022-12-19T08:47:36.259Z,99143.78
2022-12-19T08:50:09.013Z,99139.59
2022-12-19T08:52:41.185Z,99128.19
2022-12-19T08:55:13.942Z,99118.25
2022-12-19T08:57:46.262Z,99118.44
2022-12-19T09:00:18.345Z,99125.31
2022-12-19T09:02:52.088Z,99135.41
2022-12-19T09:06:04.371Z,99138.03
2022-12-19T09:08:16.847Z,99138.63
2022-12-19T09:10:49.260Z,99133.94
2022-12-19T09:13:22.540Z,99126.34
2022-12-19T09:16:07.836Z,99129.25
2022-12-19T09:18:46.609Z,99127.91
2022-12-19T09:21:24.857Z,99139.47
2022-12-19T09:24:07.045Z,99142.66
2022-12-19T09:26:42.168Z,99139.22
2022-12-19T09:29:20.328Z,99127.41
2022-12-19T09:31:56.305Z,99126.13
2022-12-19T09:34:38.376Z,99128.75
2022-12-19T09:37:16.424Z,99124.56
2022-12-19T09:39:49.564Z,99120.91
2022-12-19T09:42:49.791Z,99115.00
2022-12-19T09:46:16.340Z,99105.09
2022-12-19T09:48:55.592Z,99117.84
2022-12-19T09:52:11.590Z,99113.03
2022-12-19T09:54:54.994Z,99106.53
2022-12-19T09:57:56.618Z,99105.34
2022-12-19T10:00:36.505Z,99096.50
2022-12-19T10:03:26.291Z,99098.06
2022-12-19T10:07:12.891Z,99088.06
2022-12-19T10:09:45.342Z,99102.56
2022-12-19T10:12:38.647Z,99096.25
2022-12-19T10:14:49.444Z,99109.16
2022-12-19T10:17:30.478Z,99098.91
2022-12-19T10:20:34.208Z,99100.06
2022-12-19T10:24:11.621Z,99104.91
2022-12-19T10:26:52.250Z,99098.75
2022-12-19T10:29:42.422Z,99087.09
2022-12-19T10:32:36.794Z,99077.25
2022-12-19T10:35:15.948Z,99073.41
2022-12-19T10:37:59.937Z,99063.44
2022-12-19T10:41:14.236Z,99072.66
2022-12-19T10:44:07.166Z,99070.25
2022-12-19T10:46:49.864Z,99071.91
2022-12-19T10:49:26.671Z,99051.63
2022-12-19T10:52:10.353Z,99049.06
2022-12-19T10:54:44.320Z,99050.59
2022-12-19T10:57:24.674Z,99046.91
2022-12-19T11:00:17.008Z,99048.19
2022-12-19T11:02:54.157Z,99043.44
2022-12-19T11:05:50.652Z,99040.66
2022-12-19T11:08:32.554Z,99043.81
2022-12-19T11:11:57.985Z,99040.22
2022-12-19T11:19:24.821Z,99034.94
2022-12-19T11:22:47.627Z,99026.72
2022-12-19T11:29:41.965Z,99024.66
2022-12-19T11:29:44.433Z,99032.41
2022-12-19T11:30:44.494Z,99033.59
2022-12-19T11:30:47.264Z,99022.13
2022-12-19T11:34:25.890Z,99032.06
2022-12-19T11:37:21.363Z,99023.50
2022-12-19T11:40:02.454Z,99031.78
2022-12-19T11:43:41.552Z,99011.97
2022-12-19T11:45:52.441Z,99020.22
2022-12-19T11:48:45.933Z,99011.97
2022-12-19T11:51:51.029Z,99005.84
2022-12-19T11:54:37.966Z,99007.31
2022-12-19T11:57:13.225Z,99004.47
2022-12-19T11:59:47.322Z,98990.97
2022-12-19T12:02:38.581Z,99003.59
2022-12-19T12:05:36.780Z,98990.44
2022-12-19T12:09:13.049Z,98985.84
2022-12-19T12:18:35.938Z,98972.81
2022-12-19T12:26:11.513Z,98978.88
2022-12-19T12:31:09.105Z,98964.41
2022-12-19T12:31:10.967Z,98975.97
2022-12-19T12:31:39.471Z,98963.13
2022-12-19T12:31:59.001Z,98955.66
2022-12-19T12:35:41.440Z,98959.94
2022-12-19T12:37:51.337Z,98962.97
2022-12-19T12:39:18.061Z,98952.69
2022-12-19T12:42:08.950Z,98953.72
2022-12-19T12:44:46.109Z,98951.88
2022-12-19T12:47:24.446Z,98959.34
2022-12-19T12:50:17.837Z,98956.47
2022-12-19T12:53:02.697Z,98955.66
2022-12-19T12:55:43.335Z,98951.22
2022-12-19T12:58:46.469Z,98938.88
2022-12-19T13:01:30.372Z,98959.78
2022-12-19T13:04:11.649Z,98950.00
2022-12-19T13:06:50.560Z,98957.69
2022-12-19T13:09:36.533Z,98948.56
2022-12-19T13:12:47.007Z,98963.69
2022-12-19T13:15:28.063Z,98962.63
2022-12-19T13:18:14.531Z,98959.72
2022-12-19T13:20:48.478Z,98956.00
2022-12-19T13:23:37.735Z,98956.75
2022-12-19T13:26:47.452Z,98959.53
2022-12-19T13:30:04.058Z,98967.50
2022-12-19T13:32:39.025Z,98967.75
2022-12-19T13:36:26.331Z,98967.56
2022-12-19T13:39:57.945Z,98989.28
2022-12-19T13:42:01.312Z,98976.47
2022-12-19T13:44:40.238Z,98974.06
2022-12-19T13:47:17.665Z,98975.84
2022-12-19T13:49:53.440Z,98978.84
2022-12-19T13:52:25.540Z,98977.59
2022-12-19T13:54:59.974Z,98978.28
2022-12-19T13:57:32.961Z,98980.97
2022-12-19T14:00:11.506Z,98984.94
2022-12-19T14:02:57.489Z,98984.72
2022-12-19T14:06:14.884Z,98978.63
2022-12-19T14:08:27.392Z,98999.00
2022-12-19T14:11:36.661Z,98990.56
2022-12-19T14:14:27.628Z,98986.09
2022-12-19T14:17:15.000Z,98987.38
2022-12-19T14:19:52.085Z,99001.28
2022-12-19T14:22:27.483Z,98997.22
2022-12-19T14:25:45.209Z,98997.22
2022-12-19T14:28:18.427Z,98988.72
2022-12-19T14:34:27.116Z,98980.09
2022-12-19T14:36:57.812Z,98982.97
2022-12-19T14:39:35.605Z,98978.72
2022-12-19T14:43:56.365Z,98963.53
2022-12-19T14:53:10.811Z,98958.88
2022-12-19T14:53:52.624Z,98967.66
2022-12-19T14:54:29.063Z,98972.56
2022-12-19T14:58:50.879Z,98968.22
2022-12-19T15:01:07.625Z,98970.63
2022-12-19T15:03:32.647Z,98969.34
2022-12-19T15:07:05.078Z,98970.50
2022-12-19T15:11:03.944Z,98963.94
2022-12-19T15:13:47.263Z,98963.19
2022-12-19T15:15:51.183Z,98966.28
2022-12-19T15:18:34.406Z,98972.78
2022-12-19T15:21:12.461Z,98971.97
2022-12-19T15:23:46.126Z,98957.25
2022-12-19T15:26:34.180Z,98971.31
2022-12-19T15:29:14.139Z,98960.44
2022-12-19T15:31:51.612Z,98967.25
2022-12-19T15:34:46.363Z,98963.22
2022-12-19T15:37:23.681Z,98966.28
2022-12-19T15:39:55.588Z,98955.44
2022-12-19T15:42:28.860Z,98961.59
2022-12-19T15:45:02.817Z,98955.78
2022-12-19T15:47:37.677Z,98963.91
2022-12-19T15:50:24.856Z,98961.97
2022-12-19T15:53:00.030Z,98957.19
2022-12-19T15:55:32.426Z,98962.13
2022-12-19T15:58:06.953Z,98965.72
2022-12-19T16:00:39.977Z,98949.28
2022-12-19T16:03:23.697Z,98959.22
2022-12-19T16:05:57.248Z,98952.50
2022-12-19T16:08:30.295Z,98965.97
2022-12-19T16:11:02.568Z,98962.69
2022-12-19T16:13:35.931Z,98963.41
2022-12-19T16:16:15.537Z,98973.56
2022-12-19T16:18:48.616Z,98954.91
2022-12-19T16:21:33.617Z,98953.84
2022-12-19T16:24:07.579Z,98953.78
2022-12-19T16:26:40.478Z,98936.91
2022-12-19T16:29:23.528Z,98942.41
2022-12-19T16:31:57.262Z,98936.78
2022-12-19T16:34:29.761Z,98937.97
2022-12-19T16:37:02.979Z,98932.28
2022-12-19T16:39:34.930Z,98931.81
2022-12-19T16:42:18.559Z,98925.78
2022-12-19T16:44:50.960Z,98935.31
2022-12-19T16:47:23.838Z,98941.50
2022-12-19T16:52:50.183Z,98932.09
2022-12-19T16:55:24.584Z,98939.13
2022-12-19T16:57:58.503Z,98932.94
2022-12-19T17:00:32.180Z,98934.97
2022-12-19T17:03:36.830Z,98939.06
2022-12-19T17:06:18.471Z,98944.63
2022-12-19T17:08:51.400Z,98943.00
2022-12-19T17:14:23.962Z,98953.31
2022-12-19T17:16:58.439Z,98959.13
2022-12-19T17:19:38.475Z,98962.13
2022-12-19T17:22:19.097Z,98953.09
2022-12-19T17:24:52.230Z,98960.63
2022-12-19T17:27:26.193Z,98950.63
2022-12-19T17:29:58.593Z,98949.28
2022-12-19T17:32:31.400Z,98952.31
2022-12-19T17:35:03.902Z,98960.44
2022-12-19T17:37:36.815Z,98957.63
2022-12-19T17:40:31.191Z,98948.09
2022-12-19T17:43:03.681Z,98963.22
2022-12-19T17:45:36.173Z,98955.03
2022-12-19T17:48:36.980Z,98961.22
2022-12-19T17:51:12.207Z,98957.84
2022-12-19T17:53:45.553Z,98957.91
2022-12-19T17:56:20.901Z,98962.19
2022-12-19T17:58:55.653Z,98964.22
2022-12-19T18:01:29.819Z,98965.13
2022-12-19T18:04:02.835Z,98967.66
2022-12-19T18:06:36.507Z,98959.91
2022-12-19T18:09:22.489Z,98957.88
2022-12-19T18:11:55.822Z,98957.13
2022-12-19T18:14:28.112Z,98953.84
2022-12-19T18:17:01.827Z,98947.03
2022-12-19T18:19:34.704Z,98952.22
2022-12-19T18:22:14.809Z,98949.50
2022-12-19T18:24:46.817Z,98949.09
2022-12-19T18:27:19.646Z,98948.25
2022-12-19T18:29:51.526Z,98946.66
2022-12-19T18:32:25.030Z,98939.69
2022-12-19T18:34:57.955Z,98940.56
2022-12-19T18:37:29.895Z,98942.66
2022-12-19T18:40:02.674Z,98947.69
2022-12-19T18:42:35.620Z,98930.97
2022-12-19T18:45:13.344Z,98938.81
2022-12-19T18:47:53.867Z,98941.91
2022-12-19T18:50:27.694Z,98940.56
2022-12-19T18:53:01.516Z,98941.13
2022-12-19T18:55:33.415Z,98941.72
2022-12-19T18:58:06.191Z,98943.84
2022-12-19T19:00:39.643Z,98957.81
2022-12-19T19:03:19.732Z,98948.41
2022-12-19T19:05:52.804Z,98949.78
2022-12-19T19:08:34.681Z,98941.41
2022-12-19T19:11:20.641Z,98936.56
2022-12-19T19:13:53.189Z,98936.56
2022-12-19T19:16:27.658Z,98945.81
2022-12-19T19:19:00.949Z,98933.81
2022-12-19T19:21:36.298Z,98934.03
2022-12-19T19:24:21.499Z,98923.00
2022-12-19T19:26:53.504Z,98909.56
2022-12-19T19:29:26.174Z,98924.06
2022-12-19T19:31:58.480Z,98917.25
2022-12-19T19:34:35.359Z,98911.31
2022-12-19T19:37:10.196Z,98907.72
2022-12-19T19:39:42.680Z,98915.59
2022-12-19T19:42:19.045Z,98914.78
2022-12-19T19:44:50.907Z,98919.44
2022-12-19T19:47:28.759Z,98926.75
2022-12-19T19:50:00.698Z,98917.78
2022-12-19T19:52:33.993Z,98927.28
2022-12-19T19:55:08.389Z,98928.41
2022-12-19T19:57:41.286Z,98916.69
2022-12-19T20:00:13.905Z,98917.75
2022-12-19T20:02:46.577Z,98911.19
2022-12-19T20:05:18.722Z,98910.28
2022-12-19T20:07:53.782Z,98912.59
2022-12-19T20:10:25.650Z,98923.34
2022-12-19T20:13:01.559Z,98917.69
2022-12-19T20:15:34.211Z,98931.56
2022-12-19T20:18:06.999Z,98925.53
2022-12-19T20:20:39.032Z,98930.44
2022-12-19T20:23:11.748Z,98928.09
2022-12-19T20:25:44.558Z,98946.78
2022-12-19T20:28:17.778Z,98945.91
2022-12-19T20:30:51.248Z,98945.53
2022-12-19T20:33:23.508Z,98947.97
2022-12-19T20:35:57.850Z,98944.09
2022-12-19T20:38:30.165Z,98940.09
2022-12-19T20:41:03.450Z,98946.41
2022-12-19T20:43:38.639Z,98953.59
2022-12-19T20:46:20.755Z,98948.34
2022-12-19T20:48:53.073Z,98943.00
2022-12-19T20:51:25.812Z,98942.53
2022-12-19T20:53:57.781Z,98936.28
2022-12-19T20:56:30.121Z,98938.78
2022-12-19T20:59:02.314Z,98932.28
2022-12-19T21:01:35.112Z,98928.38
2022-12-19T21:04:08.030Z,98920.78
2022-12-19T21:06:41.705Z,98924.50
2022-12-19T21:09:14.675Z,98927.13
2022-12-19T21:11:47.006Z,98936.00
2022-12-19T21:14:19.708Z,98931.22
2022-12-19T21:16:52.026Z,98923.44
2022-12-19T21:19:24.368Z,98924.91
2022-12-19T21:21:56.273Z,98925.22
2022-12-19T21:24:29.680Z,98932.34
2022-12-19T21:27:01.571Z,98939.38
2022-12-19T21:29:34.328Z,98931.03
2022-12-19T21:32:06.637Z,98930.72
2022-12-19T21:34:38.541Z,98936.00
2022-12-19T21:37:11.843Z,98940.91
2022-12-19T21:39:43.749Z,98945.75
2022-12-19T21:42:16.465Z,98943.81
2022-12-19T21:44:48.412Z,98955.19
2022-12-19T21:47:21.680Z,98941.28
2022-12-19T21:49:54.188Z,98948.19
2022-12-19T21:55:20.021Z,98934.88
2022-12-19T21:57:52.814Z,98943.75
2022-12-19T22:00:28.466Z,98938.22
2022-12-19T22:03:14.130Z,98940.53
2022-12-19T22:05:46.987Z,98932.00
2022-12-19T22:08:19.740Z,98931.66
2022-12-19T22:10:51.638Z,98927.78
2022-12-19T22:13:25.531Z,98928.94
2022-12-19T22:16:02.247Z,98934.41
2022-12-19T22:18:37.637Z,98940.34
2022-12-19T22:21:14.849Z,98937.66
2022-12-19T22:23:46.947Z,98937.41
2022-12-19T22:26:23.067Z,98939.72
2022-12-19T22:28:57.341Z,98940.03
2022-12-19T22:31:32.873Z,98938.16
2022-12-19T22:34:11.764Z,98937.47
2022-12-19T22:36:45.863Z,98942.28
2022-12-19T22:39:20.534Z,98948.25
2022-12-19T22:41:53.335Z,98944.13
2022-12-19T22:44:25.650Z,98945.69
2022-12-19T22:46:57.976Z,98929.53
2022-12-19T22:49:29.894Z,98929.47
2022-12-19T22:52:02.652Z,98924.06
2022-12-19T22:54:34.544Z,98921.44
2022-12-19T22:57:07.630Z,98935.31
2022-12-19T22:59:40.402Z,98939.91
2022-12-19T23:02:13.405Z,98937.41
2022-12-19T23:04:45.907Z,98939.66
2022-12-19T23:07:17.807Z,98937.25
2022-12-19T23:09:50.757Z,98936.91
2022-12-19T23:12:22.684Z,98923.00
2022-12-19T23:14:55.400Z,98922.56
2022-12-19T23:17:27.323Z,98921.75
2022-12-19T23:19:59.705Z,98918.97
2022-12-19T23:22:32.437Z,98912.31
2022-12-19T23:25:05.880Z,98917.56
2022-12-19T23:27:38.209Z,98922.78
2022-12-19T23:30:11.325Z,98935.06
2022-12-19T23:32:50.288Z,98929.91
2022-12-19T23:35:23.589Z,98930.97
2022-12-19T23:37:56.024Z,98926.75
2022-12-19T23:40:28.011Z,98933.47
2022-12-19T23:43:00.434Z,98927.88
2022-12-19T23:45:32.524Z,98929.84
2022-12-19T23:48:05.940Z,98928.09
2022-12-19T23:50:37.818Z,98914.19
2022-12-19T23:53:10.640Z,98908.25
2022-12-19T23:55:42.512Z,98916.16
2022-12-19T23:58:22.309Z,98919.19
